Weather at Sulphur Creek Ranch Airport

Public forecast

Using degrees Fahrenheit for public forecast. Weather courtesy of forecast.io.

Closest aviation weather report (METAR) to Sulphur Creek Ranch Airport

Closest report is McCall Municipal Airport, 37.8 nm (69.9 km) NW. Retrieved 2021/04/20 11:51 UTC (1 hour ago):

KMYL 201151Z AUTO 00000KT 10SM CLR M03/M07 A3013 RMK AO2 SLP217 T10331072 10022 21039 50000

Closest aviation forecast (TAF) to Sulphur Creek Ranch Airport

Closest forecast is McCall Municipal Airport, 37.8 nm (69.9 km) NW. Retrieved 2021/04/20 12:21 UTC (32 minutes ago):

TAF KMYL 201120Z 2012/2112 VRB03KT P6SM SKC FM202000 33006KT P6SM SKC